createdAt,value
2023-02-24T00:01:44.462Z,97137.88
2023-02-24T00:10:21.623Z,97123.59
2023-02-24T00:14:26.757Z,97115.84
2023-02-24T00:18:29.769Z,97121.75
2023-02-24T00:22:32.998Z,97113.63
2023-02-24T00:26:37.323Z,97117.56
2023-02-24T00:30:40.602Z,97117.28
2023-02-24T00:34:44.060Z,97116.03
2023-02-24T00:38:47.688Z,97109.06
2023-02-24T00:42:54.336Z,97103.06
2023-02-24T00:46:58.214Z,97114.16
2023-02-24T00:51:02.350Z,97111.31
2023-02-24T00:55:15.488Z,97106.81
2023-02-24T00:59:20.824Z,97099.53
2023-02-24T01:03:26.178Z,97106.56
2023-02-24T01:07:29.870Z,97101.22
2023-02-24T01:12:04.180Z,97102.34
2023-02-24T01:16:09.285Z,97101.06
2023-02-24T01:20:18.347Z,97098.78
2023-02-24T01:24:22.433Z,97082.91
2023-02-24T01:28:25.559Z,97079.00
2023-02-24T01:32:32.356Z,97081.94
2023-02-24T01:36:35.656Z,97066.66
2023-02-24T01:40:38.826Z,97063.41
2023-02-24T01:45:17.114Z,97062.09
2023-02-24T01:49:27.536Z,97056.56
2023-02-24T01:53:32.977Z,97057.22
2023-02-24T01:57:39.938Z,97057.53
2023-02-24T02:01:46.320Z,97056.56
2023-02-24T02:05:52.733Z,97051.66
2023-02-24T02:09:56.774Z,97047.91
2023-02-24T02:14:01.946Z,97041.59
2023-02-24T02:18:13.699Z,97037.81
2023-02-24T02:22:46.149Z,97036.03
2023-02-24T02:27:21.258Z,97049.84
2023-02-24T02:31:56.015Z,97048.06
2023-02-24T02:36:08.646Z,97034.91
2023-02-24T02:40:20.161Z,97030.47
2023-02-24T02:44:34.059Z,97028.03
2023-02-24T02:48:41.636Z,97022.69
2023-02-24T02:52:56.156Z,97031.47
2023-02-24T02:57:06.802Z,97022.06
2023-02-24T03:01:12.701Z,97020.63
2023-02-24T03:09:30.296Z,97024.34
2023-02-24T03:13:41.824Z,97018.19
2023-02-24T03:17:47.545Z,97017.19
2023-02-24T03:22:00.233Z,97016.19
2023-02-24T03:26:17.780Z,97013.59
2023-02-24T03:30:26.977Z,97018.81
2023-02-24T03:34:41.110Z,97018.47
2023-02-24T03:38:49.530Z,97003.34
2023-02-24T03:43:05.932Z,97006.25
2023-02-24T03:47:10.399Z,97007.69
2023-02-24T03:51:18.230Z,97002.47
2023-02-24T03:55:33.328Z,97007.06
2023-02-24T04:00:30.069Z,97001.22
2023-02-24T04:04:40.112Z,96997.50
2023-02-24T04:08:51.748Z,96984.03
2023-02-24T04:13:02.287Z,96986.66
2023-02-24T04:17:14.157Z,96986.66
2023-02-24T04:21:19.074Z,96996.78
2023-02-24T04:25:26.021Z,96997.09
2023-02-24T04:29:35.867Z,96985.59
2023-02-24T04:33:41.023Z,96988.19
2023-02-24T04:37:45.333Z,96986.31
2023-02-24T04:41:50.726Z,96983.91
2023-02-24T04:45:53.708Z,96978.25
2023-02-24T04:49:58.580Z,96969.16
2023-02-24T04:54:02.176Z,96953.78
2023-02-24T04:58:05.415Z,96951.53
2023-02-24T05:02:08.837Z,96951.66
2023-02-24T05:06:17.806Z,96944.06
2023-02-24T05:10:21.676Z,96930.13
2023-02-24T05:14:25.058Z,96925.41
2023-02-24T05:18:32.283Z,96924.59
2023-02-24T05:22:36.763Z,96914.88
2023-02-24T05:26:42.222Z,96911.78
2023-02-24T05:30:45.146Z,96914.22
2023-02-24T05:34:48.761Z,96910.66
2023-02-24T05:38:57.998Z,96909.66
2023-02-24T05:43:04.804Z,96907.56
2023-02-24T05:47:07.729Z,96909.34
2023-02-24T05:51:13.182Z,96896.03
2023-02-24T05:55:18.013Z,96906.22
2023-02-24T05:59:21.695Z,96890.81
2023-02-24T06:03:31.528Z,96896.31
2023-02-24T06:07:34.938Z,96889.78
2023-02-24T06:11:41.397Z,96881.84
2023-02-24T06:15:50.873Z,96894.31
2023-02-24T06:19:54.583Z,96894.84
2023-02-24T06:23:59.282Z,96897.28
2023-02-24T06:28:03.557Z,96900.34
2023-02-24T06:32:09.118Z,96900.66
2023-02-24T06:36:14.368Z,96899.47
2023-02-24T06:40:18.328Z,96896.69
2023-02-24T06:44:24.406Z,96897.63
2023-02-24T06:48:28.710Z,96902.59
2023-02-24T06:52:32.529Z,96899.97
2023-02-24T06:56:38.913Z,96910.28
2023-02-24T07:00:46.970Z,96903.19
2023-02-24T07:04:49.847Z,96898.06
2023-02-24T07:08:54.075Z,96890.66
2023-02-24T07:12:57.437Z,96895.63
2023-02-24T07:17:01.766Z,96892.59
2023-02-24T07:21:42.282Z,96882.41
2023-02-24T07:25:46.510Z,96893.50
2023-02-24T07:29:52.930Z,96882.38
2023-02-24T07:33:58.206Z,96883.75
2023-02-24T07:38:05.594Z,96881.66
2023-02-24T07:42:12.967Z,96873.16
2023-02-24T07:46:19.711Z,96878.56
2023-02-24T07:50:24.165Z,96866.94
2023-02-24T07:54:30.644Z,96861.47
2023-02-24T07:58:34.934Z,96856.53
2023-02-24T08:02:39.366Z,96858.66
2023-02-24T08:06:47.957Z,96850.06
2023-02-24T08:10:53.765Z,96843.06
2023-02-24T08:15:00.341Z,96841.44
2023-02-24T08:19:04.057Z,96828.69
2023-02-24T08:23:10.944Z,96824.59
2023-02-24T08:27:14.463Z,96816.47
2023-02-24T08:31:18.863Z,96816.53
2023-02-24T08:35:23.739Z,96805.72
2023-02-24T08:39:30.272Z,96805.44
2023-02-24T08:43:40.343Z,96802.91
2023-02-24T08:47:45.957Z,96789.38
2023-02-24T08:51:52.998Z,96774.72
2023-02-24T08:55:57.921Z,96781.94
2023-02-24T09:00:00.772Z,96774.47
2023-02-24T09:04:07.540Z,96779.84
2023-02-24T09:08:10.492Z,96773.25
2023-02-24T09:12:22.398Z,96763.81
2023-02-24T09:16:26.781Z,96771.47
2023-02-24T09:20:52.977Z,96765.81
2023-02-24T09:25:16.243Z,96773.63
2023-02-24T09:33:51.866Z,96767.66
2023-02-24T09:37:57.029Z,96758.72
2023-02-24T09:42:25.123Z,96761.50
2023-02-24T09:46:28.238Z,96753.41
2023-02-24T09:51:02.188Z,96751.00
2023-02-24T09:55:25.283Z,96754.19
2023-02-24T09:59:34.951Z,96758.88
2023-02-24T10:03:48.328Z,96751.78
2023-02-24T10:07:57.629Z,96741.88
2023-02-24T10:12:05.996Z,96742.88
2023-02-24T10:16:16.072Z,96738.34
2023-02-24T10:20:31.479Z,96730.19
2023-02-24T10:24:47.697Z,96723.16
2023-02-24T10:28:58.800Z,96718.22
2023-02-24T10:33:07.715Z,96714.28
2023-02-24T10:37:27.685Z,96713.41
2023-02-24T10:41:46.190Z,96695.91
2023-02-24T10:45:49.605Z,96694.16
2023-02-24T10:49:58.235Z,96686.94
2023-02-24T10:54:34.686Z,96676.84
2023-02-24T10:58:45.633Z,96669.34
2023-02-24T11:03:07.261Z,96662.53
2023-02-24T11:07:24.983Z,96651.84
2023-02-24T11:11:58.473Z,96648.28
2023-02-24T11:16:20.875Z,96641.22
2023-02-24T11:20:46.443Z,96626.69
2023-02-24T11:24:53.228Z,96626.69
2023-02-24T11:29:13.737Z,96611.47
2023-02-24T11:33:31.486Z,96611.59
2023-02-24T11:37:42.847Z,96599.00
2023-02-24T11:41:51.042Z,96592.16
2023-02-24T11:46:01.433Z,96582.44
2023-02-24T11:50:19.322Z,96569.28
2023-02-24T11:54:24.121Z,96575.31
2023-02-24T11:58:33.179Z,96555.75
2023-02-24T12:02:47.205Z,96551.28
2023-02-24T12:06:59.418Z,96550.88
2023-02-24T12:11:07.276Z,96543.44
2023-02-24T12:15:19.283Z,96542.81
2023-02-24T12:19:30.779Z,96539.75
2023-02-24T12:23:37.559Z,96535.09
2023-02-24T12:27:53.141Z,96523.22
2023-02-24T12:32:05.759Z,96519.00
2023-02-24T12:36:22.182Z,96512.94
2023-02-24T12:40:39.148Z,96503.59
2023-02-24T12:44:51.688Z,96491.78
2023-02-24T12:49:23.473Z,96495.84
2023-02-24T12:53:34.407Z,96485.78
2023-02-24T12:57:46.502Z,96486.81
2023-02-24T13:02:01.602Z,96483.03
2023-02-24T13:06:14.356Z,96473.97
2023-02-24T13:10:31.661Z,96467.53
2023-02-24T13:14:39.070Z,96463.91
2023-02-24T13:18:43.422Z,96455.00
2023-02-24T13:22:48.566Z,96452.31
2023-02-24T13:26:52.097Z,96449.50
2023-02-24T13:31:05.405Z,96432.97
2023-02-24T13:35:33.504Z,96431.19
2023-02-24T13:39:41.515Z,96416.47
2023-02-24T13:43:55.639Z,96424.50
2023-02-24T13:48:19.780Z,96417.72
2023-02-24T13:52:37.225Z,96412.91
2023-02-24T13:56:46.035Z,96399.63
2023-02-24T14:01:04.426Z,96402.75
2023-02-24T14:05:18.051Z,96392.38
2023-02-24T14:09:27.193Z,96388.78
2023-02-24T14:13:34.445Z,96380.50
2023-02-24T14:17:39.212Z,96373.09
2023-02-24T14:21:51.691Z,96366.03
2023-02-24T14:25:57.339Z,96362.75
2023-02-24T14:30:00.940Z,96347.34
2023-02-24T14:34:09.141Z,96344.72
2023-02-24T14:38:44.986Z,96337.28
2023-02-24T14:42:49.696Z,96333.50
2023-02-24T14:46:55.097Z,96337.00
2023-02-24T14:51:03.446Z,96326.25
2023-02-24T14:55:13.968Z,96315.81
2023-02-24T14:59:30.736Z,96303.72
2023-02-24T15:03:38.159Z,96286.25
2023-02-24T15:07:44.873Z,96285.13
2023-02-24T15:11:54.386Z,96287.69
2023-02-24T15:15:58.223Z,96280.00
2023-02-24T15:20:01.400Z,96285.94
2023-02-24T15:24:06.679Z,96273.34
2023-02-24T15:28:26.798Z,96272.78
2023-02-24T15:32:44.204Z,96271.81
2023-02-24T15:36:51.023Z,96253.94
2023-02-24T15:41:04.399Z,96260.06
2023-02-24T15:45:26.033Z,96247.69
2023-02-24T15:49:38.302Z,96250.66
2023-02-24T15:53:42.998Z,96259.16
2023-02-24T15:57:47.492Z,96250.88
2023-02-24T16:01:51.937Z,96246.19
2023-02-24T16:05:57.891Z,96248.41
2023-02-24T16:10:04.183Z,96255.00
2023-02-24T16:14:07.284Z,96232.19
2023-02-24T16:18:21.958Z,96242.75
2023-02-24T16:22:27.830Z,96242.28
2023-02-24T16:26:34.121Z,96223.28
2023-02-24T16:30:37.227Z,96217.13
2023-02-24T16:34:42.017Z,96213.00
2023-02-24T16:38:51.077Z,96206.06
2023-02-24T16:42:53.968Z,96197.13
2023-02-24T16:46:57.834Z,96214.47
2023-02-24T16:51:00.814Z,96216.91
2023-02-24T16:55:06.180Z,96208.94
2023-02-24T16:59:09.344Z,96207.78
2023-02-24T17:03:19.388Z,96206.63
2023-02-24T17:07:22.233Z,96202.03
2023-02-24T17:11:27.848Z,96201.84
2023-02-24T17:15:31.569Z,96205.88
2023-02-24T17:19:34.795Z,96214.56
2023-02-24T17:23:38.320Z,96230.44
2023-02-24T17:27:44.167Z,96231.66
2023-02-24T17:31:47.802Z,96201.34
2023-02-24T17:35:51.127Z,96203.16
2023-02-24T17:39:54.255Z,96211.03
2023-02-24T17:43:58.588Z,96191.97
2023-02-24T17:48:02.038Z,96209.97
2023-02-24T17:52:06.344Z,96207.78
2023-02-24T17:56:10.274Z,96205.97
2023-02-24T18:00:16.235Z,96206.78
2023-02-24T18:04:19.619Z,96210.19
2023-02-24T18:08:23.421Z,96217.00
2023-02-24T18:12:26.974Z,96219.41
2023-02-24T18:16:31.732Z,96205.16
2023-02-24T18:20:34.967Z,96172.69
2023-02-24T18:24:42.337Z,96167.03
2023-02-24T18:28:45.696Z,96157.41
2023-02-24T18:32:51.964Z,96144.19
2023-02-24T18:36:56.242Z,96146.00
2023-02-24T18:41:00.770Z,96159.41
2023-02-24T18:45:03.818Z,96166.22
2023-02-24T18:49:09.937Z,96169.81
2023-02-24T18:53:12.783Z,96158.19
2023-02-24T18:57:15.901Z,96146.97
2023-02-24T19:01:21.462Z,96143.97
2023-02-24T19:05:37.741Z,96132.94
2023-02-24T19:09:42.945Z,96117.88
2023-02-24T19:13:47.632Z,96121.88
2023-02-24T19:17:50.956Z,96102.88
2023-02-24T19:21:55.744Z,96118.69
2023-02-24T19:25:59.179Z,96107.66
2023-02-24T19:30:02.493Z,96109.47
2023-02-24T19:34:07.892Z,96093.84
2023-02-24T19:38:14.956Z,96108.44
2023-02-24T19:42:18.152Z,96110.44
2023-02-24T19:46:21.573Z,96105.00
2023-02-24T19:50:25.563Z,96110.00
2023-02-24T19:54:30.947Z,96111.59
2023-02-24T19:58:34.629Z,96102.16
2023-02-24T20:02:38.545Z,96078.66
2023-02-24T20:06:44.390Z,96057.06
2023-02-24T20:10:48.686Z,96057.44
2023-02-24T20:14:52.249Z,96047.25
2023-02-24T20:18:56.519Z,96044.06
2023-02-24T20:23:03.130Z,96035.03
2023-02-24T20:27:08.436Z,96038.03
2023-02-24T20:31:13.256Z,96028.00
2023-02-24T20:35:16.674Z,96029.00
2023-02-24T20:39:19.747Z,96019.00
2023-02-24T20:43:24.418Z,96015.34
2023-02-24T20:47:27.497Z,95999.34
2023-02-24T20:51:31.942Z,95984.94
2023-02-24T20:55:35.325Z,95982.97
2023-02-24T20:59:49.235Z,95974.53
2023-02-24T21:03:59.278Z,95967.94
2023-02-24T21:08:02.236Z,95962.94
2023-02-24T21:12:07.280Z,95945.31
2023-02-24T21:16:13.362Z,95948.53
2023-02-24T21:20:16.572Z,95960.13
2023-02-24T21:24:19.549Z,95979.56
2023-02-24T21:28:23.954Z,95989.38
2023-02-24T21:32:29.997Z,95995.59
2023-02-24T21:36:32.934Z,96000.59
2023-02-24T21:40:37.198Z,96015.00
2023-02-24T21:44:43.563Z,96027.03
2023-02-24T21:48:48.997Z,96024.63
2023-02-24T21:52:52.505Z,96030.81
2023-02-24T21:56:55.442Z,96034.38
2023-02-24T22:00:59.917Z,96032.34
2023-02-24T22:05:04.271Z,96032.91
2023-02-24T22:09:11.400Z,96040.84
2023-02-24T22:13:14.352Z,96018.00
2023-02-24T22:17:18.177Z,96003.94
2023-02-24T22:21:24.951Z,95983.88
2023-02-24T22:25:27.878Z,95995.81
2023-02-24T22:29:31.216Z,95991.75
2023-02-24T22:33:36.701Z,95996.13
2023-02-24T22:37:41.423Z,96005.28
2023-02-24T22:41:44.780Z,95992.69
2023-02-24T22:45:58.011Z,95986.06
2023-02-24T22:50:01.093Z,95976.84
2023-02-24T22:54:06.856Z,95973.66
2023-02-24T22:58:10.047Z,95970.44
2023-02-24T23:02:13.252Z,95972.81
2023-02-24T23:06:18.080Z,95977.38
2023-02-24T23:10:22.716Z,95976.75
2023-02-24T23:14:26.937Z,95974.72
2023-02-24T23:18:30.079Z,95977.88
2023-02-24T23:22:32.998Z,95967.25
2023-02-24T23:26:41.181Z,95964.25
2023-02-24T23:30:46.242Z,95973.59
2023-02-24T23:34:49.425Z,95966.19
2023-02-24T23:38:53.174Z,95956.16
2023-02-24T23:42:57.559Z,95959.72
2023-02-24T23:47:01.681Z,95957.72
2023-02-24T23:51:06.002Z,95943.69
2023-02-24T23:55:11.199Z,95954.66
2023-02-24T23:59:16.655Z,95962.34
